Time;durP1;ratioP1;P1;durP2;ratioP2;P2;SDS_P1;SDS_P2;PMS_P1;PMS_P2;Temp;Humidity;BMP_temperature;BMP_pressure;BME280_temperature;BME280_humidity;BME280_pressure;Samples;Min_cycle;Max_cycle;Signal;HPM_P1;HPM_P2
2023/09/01 00:00:14;;;;;;;8.82;3.75;;;14.20;99.90;;;;;;5090682;28;20043;-72
2023/09/01 00:02:40;;;;;;;7.07;3.90;;;14.20;99.90;;;;;;5088146;28;20122;-72
2023/09/01 00:05:07;;;;;;;8.55;4.03;;;14.20;99.90;;;;;;5089829;28;20364;-72
2023/09/01 00:07:32;;;;;;;7.80;4.45;;;14.30;99.90;;;;;;5087492;28;20060;-72
2023/09/01 00:09:58;;;;;;;9.85;4.15;;;14.30;99.90;;;;;;5090628;28;21905;-72
2023/09/01 00:12:25;;;;;;;11.70;3.85;;;14.30;99.90;;;;;;5090292;28;20656;-72
2023/09/01 00:14:50;;;;;;;9.90;3.92;;;14.30;99.90;;;;;;5089870;28;20036;-73
2023/09/01 00:17:16;;;;;;;8.25;4.00;;;14.30;99.90;;;;;;5086412;28;20114;-73
2023/09/01 00:19:41;;;;;;;10.77;3.90;;;14.20;99.90;;;;;;5087261;28;20024;-73
2023/09/01 00:22:07;;;;;;;8.18;3.53;;;14.20;99.90;;;;;;5090451;28;20035;-73
2023/09/01 00:24:34;;;;;;;12.57;4.28;;;14.20;99.90;;;;;;5100566;28;20027;-73
2023/09/01 00:27:00;;;;;;;10.15;4.10;;;14.20;99.90;;;;;;5080955;28;20028;-73
2023/09/01 00:29:26;;;;;;;7.57;3.88;;;14.20;99.90;;;;;;5088017;28;20028;-72
2023/09/01 00:31:52;;;;;;;10.60;4.10;;;14.20;99.90;;;;;;5089705;28;20036;-73
2023/09/01 00:34:18;;;;;;;13.85;4.10;;;14.20;99.90;;;;;;5088006;28;20042;-73
2023/09/01 00:36:44;;;;;;;7.53;3.45;;;14.20;99.90;;;;;;5089796;28;20032;-73
2023/09/01 00:39:10;;;;;;;9.30;3.50;;;14.20;99.90;;;;;;5082667;28;20029;-73
2023/09/01 00:41:36;;;;;;;13.73;4.28;;;14.20;99.90;;;;;;5079896;28;20020;-72
2023/09/01 00:44:04;;;;;;;8.20;3.80;;;14.20;99.90;;;;;;5089365;28;20472;-73
2023/09/01 00:46:31;;;;;;;8.63;3.63;;;14.20;99.90;;;;;;5089570;28;20415;-72
2023/09/01 00:48:57;;;;;;;15.57;4.20;;;14.20;99.90;;;;;;5089265;28;20032;-73
2023/09/01 00:51:24;;;;;;;13.43;4.18;;;14.10;99.90;;;;;;5089561;28;20078;-72
2023/09/01 00:53:51;;;;;;;10.95;3.97;;;14.10;99.90;;;;;;5089886;28;20151;-73
2023/09/01 00:56:18;;;;;;;8.73;3.42;;;14.10;99.90;;;;;;5088405;28;20499;-73
2023/09/01 00:58:44;;;;;;;7.82;3.55;;;14.10;99.90;;;;;;5088914;28;20208;-73
2023/09/01 01:01:10;;;;;;;12.73;3.75;;;14.10;99.90;;;;;;5084910;28;20028;-73
2023/09/01 01:03:37;;;;;;;9.55;3.83;;;14.10;99.90;;;;;;5084137;28;20056;-73
2023/09/01 01:06:09;;;;;;;9.88;4.20;;;14.10;99.90;;;;;;5089098;28;20032;-74
2023/09/01 01:08:51;;;;;;;13.00;3.67;;;14.20;99.90;;;;;;5087498;28;20082;-72
2023/09/01 01:11:44;;;;;;;7.80;3.95;;;14.20;99.90;;;;;;5088987;28;20020;-73
2023/09/01 01:14:39;;;;;;;10.55;3.67;;;14.20;99.90;;;;;;5084023;28;20070;-72
2023/09/01 01:17:06;;;;;;;10.07;3.83;;;14.30;99.90;;;;;;5088491;28;20709;-73
2023/09/01 01:19:54;;;;;;;6.50;3.42;;;14.20;99.90;;;;;;5088671;28;20039;-73
2023/09/01 01:22:34;;;;;;;8.43;3.88;;;14.20;99.90;;;;;;5087471;28;20032;-74
2023/09/01 01:25:04;;;;;;;8.85;3.42;;;14.30;99.90;;;;;;5088732;28;20081;-73
2023/09/01 01:27:29;;;;;;;8.13;3.80;;;14.30;99.90;;;;;;5065093;28;20040;-73
2023/09/01 01:29:55;;;;;;;10.48;4.10;;;14.30;99.90;;;;;;5086671;28;20057;-73
2023/09/01 01:32:21;;;;;;;11.93;4.47;;;14.20;99.90;;;;;;5086303;28;20082;-73
2023/09/01 01:34:58;;;;;;;8.23;4.35;;;14.20;99.90;;;;;;5087707;28;20143;-74
2023/09/01 01:37:37;;;;;;;8.32;3.92;;;14.20;99.90;;;;;;5071617;28;20027;-73
2023/09/01 01:40:05;;;;;;;10.13;4.38;;;14.30;99.90;;;;;;5082513;28;20031;-74
2023/09/01 01:42:33;;;;;;;8.68;4.20;;;14.30;99.90;;;;;;5086076;28;20062;-74
2023/09/01 01:45:00;;;;;;;9.95;4.05;;;14.30;99.90;;;;;;5086208;28;20033;-74
2023/09/01 01:47:27;;;;;;;9.10;4.35;;;14.30;99.90;;;;;;5087163;28;20059;-73
2023/09/01 01:49:52;;;;;;;12.48;4.40;;;14.20;99.90;;;;;;5088030;28;20407;-73
2023/09/01 01:52:18;;;;;;;6.53;3.65;;;14.20;99.90;;;;;;5087285;28;20119;-73
2023/09/01 01:54:43;;;;;;;8.23;3.97;;;14.20;99.90;;;;;;5081759;28;20085;-72
2023/09/01 01:57:14;;;;;;;8.35;4.20;;;14.30;99.90;;;;;;5087709;28;20392;-73
2023/09/01 01:59:40;;;;;;;7.03;4.07;;;14.30;99.90;;;;;;5084752;28;20507;-73
2023/09/01 02:02:05;;;;;;;8.45;4.18;;;14.30;99.90;;;;;;5082598;28;20381;-73
2023/09/01 02:04:31;;;;;;;9.55;3.63;;;14.30;99.90;;;;;;5084711;28;20042;-72
2023/09/01 02:06:57;;;;;;;9.30;4.63;;;14.30;99.90;;;;;;5086942;28;20484;-73
2023/09/01 02:09:23;;;;;;;8.43;4.20;;;14.20;99.90;;;;;;5075965;28;20039;-72
2023/09/01 02:11:49;;;;;;;12.32;4.18;;;14.20;99.90;;;;;;5073835;28;20048;-72
2023/09/01 02:14:14;;;;;;;7.88;4.13;;;14.30;99.90;;;;;;5089110;28;20036;-72
2023/09/01 02:16:40;;;;;;;9.75;4.03;;;14.30;99.90;;;;;;5084658;28;20028;-72
2023/09/01 02:19:09;;;;;;;10.23;3.88;;;14.30;99.90;;;;;;5087186;28;20036;-73
2023/09/01 02:21:34;;;;;;;9.20;4.18;;;14.30;99.90;;;;;;5081129;28;20024;-73
2023/09/01 02:24:00;;;;;;;7.57;3.92;;;14.30;99.90;;;;;;5090605;28;20032;-72
2023/09/01 02:26:26;;;;;;;8.48;4.70;;;14.20;99.90;;;;;;5087463;28;20110;-72
2023/09/01 02:28:51;;;;;;;8.18;3.92;;;14.30;99.90;;;;;;5086479;28;20032;-72
2023/09/01 02:31:18;;;;;;;14.52;3.92;;;14.20;99.90;;;;;;5096980;28;20063;-72
2023/09/01 02:33:44;;;;;;;12.32;4.13;;;14.30;99.90;;;;;;5085726;28;20694;-73
2023/09/01 02:36:24;;;;;;;10.63;3.90;;;14.30;99.90;;;;;;5087265;28;20119;-74
2023/09/01 02:38:51;;;;;;;6.30;3.53;;;14.30;99.90;;;;;;5108781;28;20062;-72
2023/09/01 02:41:16;;;;;;;6.60;3.75;;;14.30;99.90;;;;;;5096078;28;20078;-72
2023/09/01 02:43:42;;;;;;;8.70;4.03;;;14.30;99.90;;;;;;5086537;28;20040;-73
2023/09/01 02:46:08;;;;;;;108.80;6.90;;;14.30;99.90;;;;;;5090344;28;20067;-72
2023/09/01 02:48:33;;;;;;;12.43;4.53;;;14.30;99.90;;;;;;5083806;28;20120;-73
2023/09/01 02:50:59;;;;;;;7.15;4.10;;;14.20;99.90;;;;;;5068549;28;20062;-73
2023/09/01 02:53:24;;;;;;;9.60;4.28;;;14.20;99.90;;;;;;5086614;28;20031;-71
2023/09/01 02:55:51;;;;;;;8.10;4.68;;;14.20;99.90;;;;;;5085649;28;20555;-73
2023/09/01 02:58:17;;;;;;;14.50;4.55;;;14.20;99.90;;;;;;5087450;28;20082;-72
2023/09/01 03:00:46;;;;;;;7.95;4.47;;;14.20;99.90;;;;;;5085614;28;20028;-73
2023/09/01 03:03:12;;;;;;;9.55;4.45;;;14.10;99.90;;;;;;5081563;28;20038;-72
2023/09/01 03:05:38;;;;;;;8.73;4.38;;;14.10;99.90;;;;;;5081021;28;20403;-73
2023/09/01 03:08:05;;;;;;;9.93;4.47;;;14.00;99.90;;;;;;5088565;28;20032;-73
2023/09/01 03:10:31;;;;;;;9.07;4.13;;;13.90;99.90;;;;;;5087660;28;20036;-72
2023/09/01 03:12:57;;;;;;;11.48;4.93;;;13.90;99.90;;;;;;5086072;28;20383;-73
2023/09/01 03:15:22;;;;;;;9.52;4.35;;;13.80;99.90;;;;;;5086589;28;20039;-72
2023/09/01 03:17:48;;;;;;;11.65;4.40;;;13.80;99.90;;;;;;5086088;28;20657;-72
2023/09/01 03:20:14;;;;;;;8.63;4.47;;;13.80;99.90;;;;;;5088588;28;20028;-72
2023/09/01 03:22:40;;;;;;;8.82;4.47;;;13.80;99.90;;;;;;5085871;28;20517;-72
2023/09/01 03:25:09;;;;;;;8.43;4.03;;;13.80;99.90;;;;;;5087505;28;20069;-72
2023/09/01 03:27:39;;;;;;;9.55;4.53;;;13.80;99.90;;;;;;5086027;28;20399;-73
2023/09/01 03:30:06;;;;;;;9.73;4.43;;;13.90;99.90;;;;;;5081283;28;20036;-73
2023/09/01 03:32:31;;;;;;;10.73;4.38;;;13.90;99.90;;;;;;5083608;28;20032;-72
2023/09/01 03:34:57;;;;;;;8.48;4.35;;;14.00;99.90;;;;;;5087708;28;20460;-72
2023/09/01 03:37:24;;;;;;;9.10;4.07;;;13.90;99.90;;;;;;5087533;28;20043;-72
2023/09/01 03:39:50;;;;;;;6.50;3.80;;;13.90;99.90;;;;;;5086502;28;20036;-72
2023/09/01 03:42:16;;;;;;;8.80;4.22;;;13.80;99.90;;;;;;5087804;28;20066;-72
2023/09/01 03:44:42;;;;;;;9.70;3.97;;;13.90;99.90;;;;;;5087668;28;20046;-72
2023/09/01 03:47:09;;;;;;;8.82;4.00;;;13.90;99.90;;;;;;5087573;28;20460;-73
2023/09/01 03:49:34;;;;;;;9.00;4.10;;;13.90;99.90;;;;;;5093590;28;20036;-72
2023/09/01 03:52:00;;;;;;;10.38;4.20;;;13.90;99.90;;;;;;5088271;28;20081;-72
2023/09/01 03:54:26;;;;;;;10.38;4.72;;;14.00;99.90;;;;;;5088438;28;20060;-72
2023/09/01 03:56:51;;;;;;;9.48;4.20;;;14.00;99.90;;;;;;5085317;28;20100;-72
2023/09/01 03:59:18;;;;;;;7.82;4.03;;;14.00;99.90;;;;;;5075406;28;20032;-75
2023/09/01 04:01:44;;;;;;;7.90;3.83;;;14.00;99.90;;;;;;5080773;28;20027;-75
2023/09/01 04:04:11;;;;;;;7.57;3.47;;;14.00;99.90;;;;;;5086707;28;20032;-73
2023/09/01 04:06:38;;;;;;;8.70;4.18;;;14.10;99.90;;;;;;5085082;28;20461;-72
2023/09/01 04:09:04;;;;;;;7.05;3.42;;;14.20;99.90;;;;;;5082823;28;20027;-73
2023/09/01 04:11:30;;;;;;;10.82;4.32;;;14.20;99.90;;;;;;5083600;28;20048;-72
2023/09/01 04:13:56;;;;;;;10.63;3.80;;;14.20;99.90;;;;;;5085440;28;20052;-75
2023/09/01 04:16:22;;;;;;;9.13;3.72;;;14.20;99.90;;;;;;5083917;28;20033;-75
2023/09/01 04:18:48;;;;;;;8.18;4.00;;;14.20;99.90;;;;;;5085004;28;20063;-72
2023/09/01 04:21:13;;;;;;;6.80;3.78;;;14.20;99.90;;;;;;5084957;28;20059;-72
2023/09/01 04:23:40;;;;;;;10.57;4.43;;;14.20;99.90;;;;;;5084949;28;20075;-73
2023/09/01 04:26:07;;;;;;;9.82;4.03;;;14.20;99.90;;;;;;5083199;28;20036;-73
2023/09/01 04:28:34;;;;;;;9.93;4.15;;;14.20;99.90;;;;;;5079925;28;20016;-75
2023/09/01 04:31:01;;;;;;;10.00;4.10;;;14.20;99.90;;;;;;5084460;28;20072;-75
2023/09/01 04:33:27;;;;;;;10.82;4.60;;;14.20;99.90;;;;;;5082258;28;20043;-74
2023/09/01 04:36:11;;;;;;;7.47;4.10;;;14.20;99.90;;;;;;5084694;28;20032;-72
2023/09/01 04:38:36;;;;;;;9.90;4.50;;;14.20;99.90;;;;;;5086272;28;20036;-74
2023/09/01 04:41:02;;;;;;;16.38;4.32;;;14.30;99.90;;;;;;5089174;28;20074;-74
2023/09/01 04:43:28;;;;;;;7.72;4.18;;;14.20;99.90;;;;;;5087495;28;20750;-73
2023/09/01 04:45:54;;;;;;;7.72;4.13;;;14.30;99.90;;;;;;5085979;28;20526;-73
2023/09/01 04:48:21;;;;;;;9.10;4.20;;;14.30;99.90;;;;;;5085108;28;20044;-75
2023/09/01 04:50:47;;;;;;;8.27;3.63;;;14.30;99.90;;;;;;5083082;28;20546;-73
2023/09/01 04:53:13;;;;;;;7.85;3.35;;;14.40;99.90;;;;;;5067262;28;20035;-73
2023/09/01 04:55:38;;;;;;;5.53;3.40;;;14.30;99.90;;;;;;5085527;28;20035;-75
2023/09/01 04:58:04;;;;;;;8.43;3.70;;;14.40;99.90;;;;;;5090030;28;20086;-74
2023/09/01 05:00:30;;;;;;;7.45;3.40;;;14.40;99.90;;;;;;5087114;28;20517;-75
2023/09/01 05:02:55;;;;;;;8.63;3.47;;;14.50;99.90;;;;;;5067337;28;20170;-74
2023/09/01 05:05:21;;;;;;;8.25;3.60;;;14.50;99.90;;;;;;5086231;28;20055;-74
2023/09/01 05:07:47;;;;;;;8.18;3.40;;;14.50;99.90;;;;;;5085711;28;20024;-74
2023/09/01 05:10:13;;;;;;;7.18;3.90;;;14.60;99.90;;;;;;5086068;28;20028;-73
2023/09/01 05:12:38;;;;;;;5.20;3.38;;;14.50;99.90;;;;;;5088358;28;20036;-73
2023/09/01 05:15:05;;;;;;;7.25;3.70;;;14.60;99.90;;;;;;5086518;28;20273;-76
2023/09/01 05:17:31;;;;;;;8.48;3.50;;;14.60;99.90;;;;;;5084961;28;20028;-79
2023/09/01 05:19:57;;;;;;;7.07;3.83;;;14.60;99.90;;;;;;5083420;28;20046;-74
2023/09/01 05:22:23;;;;;;;5.07;3.67;;;14.70;99.90;;;;;;5088255;28;20032;-74
2023/09/01 05:24:49;;;;;;;9.18;3.78;;;14.70;99.90;;;;;;5088300;28;20025;-75
2023/09/01 05:27:18;;;;;;;8.13;4.53;;;14.80;99.90;;;;;;5089728;28;20028;-74
2023/09/01 05:29:44;;;;;;;9.05;4.22;;;14.80;99.90;;;;;;5069894;28;20081;-72
2023/09/01 05:32:10;;;;;;;9.95;3.88;;;14.90;99.90;;;;;;5090230;28;20403;-75
2023/09/01 05:34:35;;;;;;;8.35;3.60;;;14.90;99.90;;;;;;5087892;28;20084;-73
2023/09/01 05:37:02;;;;;;;7.60;4.05;;;14.90;99.90;;;;;;5090232;28;20032;-74
2023/09/01 05:39:28;;;;;;;6.13;3.47;;;14.90;99.90;;;;;;5090572;28;20028;-75
2023/09/01 05:41:54;;;;;;;5.97;3.40;;;15.00;99.90;;;;;;5089522;28;20184;-75
2023/09/01 05:44:20;;;;;;;8.10;3.38;;;15.00;99.90;;;;;;5088511;28;20102;-73
2023/09/01 05:46:45;;;;;;;9.32;3.90;;;15.00;99.90;;;;;;5085733;28;20119;-75
2023/09/01 05:49:11;;;;;;;6.22;3.40;;;15.00;99.90;;;;;;5087309;28;20127;-74
2023/09/01 05:51:37;;;;;;;8.75;3.45;;;15.10;99.90;;;;;;5084583;28;20035;-72
2023/09/01 05:54:03;;;;;;;6.55;3.30;;;15.30;99.90;;;;;;5085074;28;20093;-72
2023/09/01 05:56:28;;;;;;;6.47;3.28;;;15.50;99.90;;;;;;5083869;28;20110;-76
2023/09/01 05:58:54;;;;;;;11.43;3.13;;;15.50;99.90;;;;;;5087377;28;20032;-74
2023/09/01 06:01:19;;;;;;;6.63;3.53;;;15.50;99.90;;;;;;5087591;28;20063;-74
2023/09/01 06:03:45;;;;;;;6.88;3.10;;;15.60;99.90;;;;;;5086476;28;20044;-73
2023/09/01 06:06:11;;;;;;;8.65;3.30;;;15.50;99.90;;;;;;5086120;28;20107;-74
2023/09/01 06:08:36;;;;;;;5.65;3.03;;;15.60;99.90;;;;;;5087356;28;20077;-73
2023/09/01 06:11:08;;;;;;;4.78;3.13;;;15.60;99.90;;;;;;5086848;28;20126;-73
2023/09/01 06:13:34;;;;;;;8.13;2.95;;;15.60;99.90;;;;;;5084811;28;20028;-73
2023/09/01 06:16:03;;;;;;;5.03;2.55;;;15.60;99.90;;;;;;5084612;28;20036;-74
2023/09/01 06:18:28;;;;;;;8.52;2.65;;;15.60;99.90;;;;;;5086777;28;20469;-73
2023/09/01 06:20:54;;;;;;;8.13;2.85;;;15.60;99.90;;;;;;5084492;28;20036;-72
2023/09/01 06:23:20;;;;;;;5.57;2.40;;;15.60;99.90;;;;;;5085447;28;20036;-79
2023/09/01 06:25:45;;;;;;;5.43;2.67;;;15.50;99.90;;;;;;5083849;28;20059;-75
2023/09/01 06:28:12;;;;;;;8.00;2.88;;;15.50;99.90;;;;;;5082530;28;20028;-73
2023/09/01 06:30:39;;;;;;;5.78;3.13;;;15.50;99.90;;;;;;5086888;28;20381;-73
2023/09/01 06:33:05;;;;;;;4.18;2.55;;;15.50;99.90;;;;;;5069834;28;20036;-74
2023/09/01 06:35:34;;;;;;;9.38;2.80;;;15.50;99.90;;;;;;5085660;28;20040;-73
2023/09/01 06:38:04;;;;;;;5.72;2.83;;;15.60;99.90;;;;;;5085401;28;20028;-73
2023/09/01 06:40:30;;;;;;;7.45;2.38;;;15.60;99.90;;;;;;5080045;28;20058;-74
2023/09/01 06:42:56;;;;;;;4.63;2.40;;;15.60;99.90;;;;;;5082818;28;20031;-76
2023/09/01 06:45:21;;;;;;;6.57;2.75;;;15.60;99.90;;;;;;5089098;28;20116;-73
2023/09/01 06:47:52;;;;;;;7.13;2.60;;;15.60;99.90;;;;;;5082737;28;20138;-74
2023/09/01 06:50:18;;;;;;;7.07;2.50;;;15.50;99.90;;;;;;5087400;28;20632;-74
2023/09/01 06:52:45;;;;;;;4.93;2.47;;;15.50;99.90;;;;;;5083951;28;20032;-74
2023/09/01 06:55:12;;;;;;;7.60;2.45;;;15.50;99.90;;;;;;5083977;28;20032;-72
2023/09/01 06:57:38;;;;;;;6.07;2.70;;;15.50;99.90;;;;;;5086235;28;20529;-76
2023/09/01 07:00:05;;;;;;;4.15;2.20;;;15.50;99.90;;;;;;5087996;28;20024;-75
2023/09/01 07:02:31;;;;;;;7.03;2.60;;;15.60;99.90;;;;;;5084376;28;20039;-74
2023/09/01 07:04:57;;;;;;;5.65;2.95;;;15.60;99.90;;;;;;5086267;28;20077;-74
2023/09/01 07:07:23;;;;;;;5.45;2.92;;;15.60;99.90;;;;;;5083618;28;20020;-74
2023/09/01 07:09:48;;;;;;;7.47;2.72;;;15.60;99.90;;;;;;5082798;28;20077;-73
2023/09/01 07:12:15;;;;;;;4.50;2.50;;;15.60;99.90;;;;;;5086657;28;20040;-73
2023/09/01 07:14:40;;;;;;;4.85;2.70;;;15.60;99.90;;;;;;5086520;28;20040;-73
2023/09/01 07:17:06;;;;;;;4.68;2.60;;;15.60;99.90;;;;;;5085821;28;20024;-73
2023/09/01 07:19:32;;;;;;;4.40;2.35;;;15.50;99.90;;;;;;5085417;28;20469;-75
2023/09/01 07:21:57;;;;;;;3.83;2.40;;;15.50;99.90;;;;;;5087062;28;20017;-75
2023/09/01 07:24:23;;;;;;;4.90;2.65;;;15.50;99.90;;;;;;5087188;28;20103;-75
2023/09/01 07:26:48;;;;;;;6.28;2.47;;;15.50;99.90;;;;;;5086630;28;20058;-75
2023/09/01 07:29:14;;;;;;;6.38;2.53;;;15.50;99.90;;;;;;5088526;28;20110;-74
2023/09/01 07:31:40;;;;;;;5.53;2.35;;;15.50;99.90;;;;;;5083738;28;20028;-75
2023/09/01 07:34:05;;;;;;;4.03;2.13;;;15.50;99.90;;;;;;5086490;28;20517;-73
2023/09/01 07:36:31;;;;;;;3.83;1.95;;;15.60;99.90;;;;;;5084007;28;20437;-73
2023/09/01 07:38:57;;;;;;;5.35;2.20;;;15.60;99.90;;;;;;5063907;28;20064;-73
2023/09/01 07:41:22;;;;;;;4.75;2.10;;;15.50;99.90;;;;;;5068281;28;20024;-75
2023/09/01 07:43:49;;;;;;;5.75;1.95;;;15.50;99.90;;;;;;5067336;28;20468;-75
2023/09/01 07:46:15;;;;;;;3.00;2.17;;;15.60;99.90;;;;;;5083232;28;20056;-74
2023/09/01 07:48:40;;;;;;;7.43;2.88;;;15.50;99.90;;;;;;5086225;28;20555;-78
2023/09/01 07:51:06;;;;;;;3.63;2.00;;;15.50;99.90;;;;;;5087188;28;20639;-72
2023/09/01 07:53:32;;;;;;;4.90;2.40;;;15.40;99.90;;;;;;5086713;28;20122;-73
2023/09/01 07:55:58;;;;;;;5.30;2.15;;;15.50;99.90;;;;;;5084679;28;20032;-74
2023/09/01 07:58:23;;;;;;;4.97;2.58;;;15.40;99.90;;;;;;5087633;28;20039;-72
2023/09/01 08:00:51;;;;;;;3.90;2.08;;;15.50;99.90;;;;;;5069038;28;20028;-74
2023/09/01 08:03:17;;;;;;;5.35;2.30;;;15.50;99.90;;;;;;5069008;28;20062;-75
2023/09/01 08:05:42;;;;;;;3.90;2.00;;;15.50;99.90;;;;;;5086662;28;20050;-74
2023/09/01 08:08:12;;;;;;;3.05;1.98;;;15.50;99.90;;;;;;5087536;28;20035;-78
2023/09/01 08:10:37;;;;;;;2.83;1.40;;;15.60;99.90;;;;;;5087209;28;20031;-73
2023/09/01 08:13:05;;;;;;;3.72;1.98;;;15.60;99.90;;;;;;5083690;28;20423;-77
2023/09/01 08:15:32;;;;;;;3.60;1.55;;;15.60;99.90;;;;;;5087295;28;20034;-73
2023/09/01 08:17:58;;;;;;;2.33;1.40;;;15.60;99.90;;;;;;5089433;28;20042;-74
2023/09/01 08:20:24;;;;;;;2.35;1.23;;;15.60;99.90;;;;;;5090841;28;20032;-74
2023/09/01 08:22:50;;;;;;;2.35;1.30;;;15.70;99.90;;;;;;5089329;28;20039;-75
2023/09/01 08:25:15;;;;;;;1.83;1.27;;;15.70;99.90;;;;;;5091052;28;20107;-75
2023/09/01 08:27:41;;;;;;;2.63;1.45;;;15.80;99.90;;;;;;5087126;28;20050;-76
2023/09/01 08:30:07;;;;;;;2.10;1.35;;;15.80;99.90;;;;;;5089547;28;20035;-73
2023/09/01 08:32:33;;;;;;;2.50;1.40;;;15.80;99.90;;;;;;5090787;28;20028;-74
2023/09/01 08:35:03;;;;;;;3.72;1.48;;;15.80;99.90;;;;;;5089215;28;20038;-75
2023/09/01 08:37:28;;;;;;;2.25;1.35;;;15.80;99.90;;;;;;5089304;28;20062;-74
2023/09/01 08:39:54;;;;;;;4.03;1.40;;;15.80;99.90;;;;;;5089515;28;20385;-77
2023/09/01 08:42:21;;;;;;;2.42;1.58;;;16.00;99.90;;;;;;5086773;28;20036;-76
2023/09/01 08:44:48;;;;;;;2.90;1.83;;;16.00;99.90;;;;;;5086834;28;20036;-76
2023/09/01 08:47:20;;;;;;;7.05;1.77;;;16.00;99.90;;;;;;5090472;28;20514;-75
2023/09/01 08:49:48;;;;;;;2.72;1.65;;;16.10;99.90;;;;;;5088379;28;20127;-75
2023/09/01 08:52:15;;;;;;;4.00;1.60;;;16.30;99.90;;;;;;5089397;28;20035;-74
2023/09/01 08:54:41;;;;;;;3.10;1.65;;;16.40;99.90;;;;;;5088530;28;20035;-75
2023/09/01 08:57:07;;;;;;;3.05;1.67;;;16.50;99.90;;;;;;5087010;28;20028;-74
2023/09/01 08:59:33;;;;;;;3.83;2.22;;;16.60;99.90;;;;;;5088650;28;20035;-75
2023/09/01 09:01:59;;;;;;;3.88;1.45;;;16.70;99.90;;;;;;5071367;28;20097;-74
2023/09/01 09:04:25;;;;;;;3.72;1.38;;;16.70;99.90;;;;;;5090134;28;20036;-73
2023/09/01 09:06:51;;;;;;;3.03;1.63;;;16.90;99.90;;;;;;5090064;28;20388;-72
2023/09/01 09:09:18;;;;;;;2.38;1.17;;;17.10;99.90;;;;;;5089264;28;20032;-72
2023/09/01 09:11:58;;;;;;;3.90;1.38;;;17.10;99.90;;;;;;5090810;28;20039;-74
2023/09/01 09:14:27;;;;;;;2.78;1.05;;;17.30;99.90;;;;;;5089362;28;20758;-72
2023/09/01 09:16:54;;;;;;;1.97;1.30;;;17.20;99.90;;;;;;5088754;28;20020;-72
2023/09/01 09:19:20;;;;;;;2.30;1.40;;;17.20;99.90;;;;;;5089510;28;20294;-74
2023/09/01 09:21:46;;;;;;;5.10;1.27;;;17.30;99.90;;;;;;5085235;28;20036;-75
2023/09/01 09:24:12;;;;;;;3.15;1.35;;;17.30;99.90;;;;;;5084072;28;20082;-73
2023/09/01 09:26:38;;;;;;;2.20;1.27;;;17.30;99.90;;;;;;5085676;28;20414;-75
2023/09/01 09:29:11;;;;;;;2.63;1.30;;;17.30;99.90;;;;;;5088740;28;20061;-75
2023/09/01 09:31:41;;;;;;;2.60;1.45;;;17.30;99.90;;;;;;5089748;28;20024;-75
2023/09/01 09:34:15;;;;;;;4.20;1.45;;;17.30;99.90;;;;;;5071434;28;20119;-75
2023/09/01 09:36:42;;;;;;;2.88;1.45;;;17.30;99.90;;;;;;5089068;28;20127;-74
2023/09/01 09:39:22;;;;;;;4.82;1.52;;;17.40;99.90;;;;;;5086373;28;20032;-74
2023/09/01 09:41:48;;;;;;;;;;;17.30;99.90;;;;;;5090067;28;20023;-72
2023/09/01 09:44:38;;;;;;;3.58;1.90;;;17.20;99.90;;;;;;5087507;28;19916;-75
2023/09/01 09:47:10;;;;;;;5.35;1.50;;;17.30;99.90;;;;;;5076029;28;20056;-75
2023/09/01 09:49:39;;;;;;;4.32;1.73;;;17.20;99.90;;;;;;5090465;28;20040;-72
2023/09/01 09:52:08;;;;;;;4.82;1.65;;;17.20;99.90;;;;;;5087676;28;20039;-77
2023/09/01 09:54:37;;;;;;;3.22;1.50;;;17.20;99.90;;;;;;5085094;28;20040;-74
2023/09/01 09:57:09;;;;;;;2.45;1.50;;;17.40;99.90;;;;;;5065009;28;20036;-74
2023/09/01 09:59:45;;;;;;;2.05;1.20;;;17.60;99.90;;;;;;5087130;28;20158;-73
2023/09/01 10:02:27;;;;;;;2.85;1.30;;;17.70;99.90;;;;;;5071977;28;20104;-74
2023/09/01 10:04:55;;;;;;;3.47;1.63;;;17.90;99.90;;;;;;5089297;28;20028;-73
2023/09/01 10:07:22;;;;;;;3.72;1.52;;;18.00;99.90;;;;;;5085649;28;20032;-73
2023/09/01 10:09:48;;;;;;;2.75;1.33;;;18.10;99.90;;;;;;5088093;28;20109;-72
2023/09/01 10:12:15;;;;;;;4.15;1.55;;;18.30;99.90;;;;;;5088996;28;20043;-71
2023/09/01 10:14:42;;;;;;;2.78;1.40;;;18.20;99.90;;;;;;5088284;28;20032;-75
2023/09/01 10:17:09;;;;;;;3.00;1.45;;;18.30;99.90;;;;;;5082648;28;20024;-77
2023/09/01 10:19:35;;;;;;;2.75;1.50;;;18.20;99.90;;;;;;5052696;28;20512;-75
2023/09/01 10:22:01;;;;;;;4.97;1.77;;;18.30;99.90;;;;;;5077084;28;20114;-73
2023/09/01 10:24:26;;;;;;;3.05;1.70;;;18.50;99.90;;;;;;5088282;28;20432;-75
2023/09/01 10:27:07;;;;;;;2.40;1.30;;;18.80;99.90;;;;;;5088993;28;20391;-74
2023/09/01 10:29:36;;;;;;;1.95;1.23;;;19.30;99.90;;;;;;5085967;28;20038;-75
2023/09/01 10:32:17;;;;;;;2.35;1.40;;;19.40;99.90;;;;;;5086193;28;20032;-73
2023/09/01 10:34:53;;;;;;;5.57;1.42;;;19.30;99.90;;;;;;5077495;28;20353;-73
2023/09/01 10:37:30;;;;;;;2.75;1.67;;;19.40;99.90;;;;;;5086319;28;20507;-73
2023/09/01 10:39:57;;;;;;;5.63;1.70;;;19.30;99.90;;;;;;5082579;28;20150;-73
2023/09/01 10:42:43;;;;;;;5.32;1.73;;;19.10;99.90;;;;;;5088869;28;20032;-73
2023/09/01 10:45:11;;;;;;;3.42;1.60;;;18.90;99.90;;;;;;5082646;28;20492;-72
2023/09/01 10:47:45;;;;;;;2.97;1.40;;;19.10;99.90;;;;;;5077590;28;20052;-73
2023/09/01 10:50:12;;;;;;;3.40;1.35;;;19.50;99.90;;;;;;5086992;28;20036;-72
2023/09/01 10:52:38;;;;;;;3.00;1.77;;;19.60;99.90;;;;;;5086130;28;20043;-73
2023/09/01 10:55:06;;;;;;;4.03;1.88;;;19.60;99.90;;;;;;5070911;28;20071;-70
2023/09/01 10:57:46;;;;;;;4.10;1.80;;;19.50;99.90;;;;;;5071718;28;20040;-72
2023/09/01 11:00:28;;;;;;;;;;;19.20;99.90;;;;;;5084057;28;20115;-72
2023/09/01 11:03:14;;;;;;;2.65;1.80;;;19.20;99.90;;;;;;5083261;28;19999;-73
2023/09/01 11:05:40;;;;;;;6.10;1.70;;;19.20;99.90;;;;;;5081936;28;20028;-73
2023/09/01 11:08:09;;;;;;;6.55;2.10;;;19.20;99.90;;;;;;5083850;28;20028;-72
2023/09/01 11:10:35;;;;;;;4.43;1.92;;;19.20;99.90;;;;;;5085722;28;20523;-74
2023/09/01 11:13:13;;;;;;;5.22;1.77;;;19.40;99.90;;;;;;5083538;28;20048;-73
2023/09/01 11:15:49;;;;;;;7.35;1.90;;;19.60;99.90;;;;;;5086224;28;20028;-73
2023/09/01 11:18:17;;;;;;;3.78;1.88;;;19.80;99.90;;;;;;5082946;28;20019;-72
2023/09/01 11:20:43;;;;;;;5.30;2.05;;;20.00;99.90;;;;;;5088602;28;20032;-72
2023/09/01 11:23:09;;;;;;;2.35;1.75;;;20.00;99.90;;;;;;5081854;28;20712;-73
2023/09/01 11:25:35;;;;;;;3.30;1.65;;;20.10;99.90;;;;;;5083994;28;20504;-72
2023/09/01 11:28:02;;;;;;;3.85;1.80;;;20.20;99.90;;;;;;5085653;28;20028;-72
2023/09/01 11:30:27;;;;;;;4.68;2.00;;;20.20;99.90;;;;;;5082000;28;20082;-75
2023/09/01 11:32:54;;;;;;;2.42;1.40;;;20.30;99.90;;;;;;5084945;28;21026;-75
2023/09/01 11:35:23;;;;;;;3.40;1.42;;;20.20;99.90;;;;;;5085878;28;20047;-74
2023/09/01 11:37:48;;;;;;;4.22;1.30;;;20.30;99.90;;;;;;5084989;28;20605;-73
2023/09/01 11:40:14;;;;;;;2.50;1.27;;;20.30;99.90;;;;;;5082101;28;20035;-73
2023/09/01 11:42:43;;;;;;;3.55;1.33;;;20.20;99.90;;;;;;5083928;28;20047;-73
2023/09/01 11:45:10;;;;;;;5.93;1.23;;;20.30;99.90;;;;;;5087530;28;20467;-72
2023/09/01 11:47:36;;;;;;;2.55;1.20;;;20.20;99.90;;;;;;5085669;28;20457;-74
2023/09/01 11:50:03;;;;;;;3.70;1.20;;;20.20;99.90;;;;;;5089153;28;20036;-74
2023/09/01 11:52:28;;;;;;;4.05;1.30;;;20.50;99.90;;;;;;5086329;28;20047;-75
2023/09/01 11:54:55;;;;;;;1.98;1.10;;;20.80;99.90;;;;;;5080934;28;20036;-75
2023/09/01 11:57:21;;;;;;;4.95;1.30;;;20.60;99.90;;;;;;5091529;28;20039;-75
2023/09/01 11:59:48;;;;;;;3.42;1.10;;;20.50;99.90;;;;;;5086820;28;20481;-74
2023/09/01 12:02:15;;;;;;;2.20;1.15;;;20.60;99.90;;;;;;5088341;28;20043;-75
2023/09/01 12:04:48;;;;;;;3.80;1.20;;;20.60;99.90;;;;;;5089235;28;20062;-74
2023/09/01 12:07:30;;;;;;;1.83;0.95;;;20.60;99.90;;;;;;5088429;28;20380;-74
2023/09/01 12:09:56;;;;;;;2.78;1.15;;;20.90;99.90;;;;;;5072047;28;20032;-76
2023/09/01 12:12:22;;;;;;;2.28;1.02;;;20.90;99.90;;;;;;5091696;28;20030;-73
2023/09/01 12:14:48;;;;;;;2.58;1.00;;;20.90;99.90;;;;;;5088909;28;20028;-74
2023/09/01 12:17:16;;;;;;;1.77;1.05;;;21.10;99.90;;;;;;5088325;28;20055;-73
2023/09/01 12:19:50;;;;;;;1.92;0.80;;;21.40;99.90;;;;;;5090105;28;20048;-74
2023/09/01 12:22:17;;;;;;;2.40;0.98;;;21.60;99.90;;;;;;5089979;28;20040;-74
2023/09/01 12:24:53;;;;;;;1.75;1.00;;;21.70;99.90;;;;;;5083953;28;20028;-74
2023/09/01 12:27:19;;;;;;;3.60;0.90;;;22.00;99.90;;;;;;5088028;28;20092;-72
2023/09/01 12:29:45;;;;;;;2.28;1.00;;;22.10;99.90;;;;;;5087696;28;20389;-75
2023/09/01 12:32:11;;;;;;;5.00;1.33;;;21.90;99.90;;;;;;5090709;28;20028;-75
2023/09/01 12:34:37;;;;;;;2.33;0.90;;;21.70;99.90;;;;;;5091765;28;20063;-73
2023/09/01 12:37:03;;;;;;;1.85;1.02;;;21.70;99.90;;;;;;5090986;28;20013;-74
2023/09/01 12:39:28;;;;;;;3.00;1.02;;;22.00;99.90;;;;;;5090821;28;20442;-74
2023/09/01 12:41:54;;;;;;;2.15;1.10;;;22.30;99.90;;;;;;5089148;28;20070;-73
2023/09/01 12:44:20;;;;;;;1.75;1.00;;;22.20;99.90;;;;;;5090335;28;20563;-73
2023/09/01 12:46:47;;;;;;;6.50;1.48;;;22.20;99.90;;;;;;5090794;28;20052;-73